createdAt,value
2022-09-01T00:01:27.139Z,1.40
2022-09-01T00:03:55.454Z,1.20
2022-09-01T00:06:23.958Z,1.37
2022-09-01T00:08:55.130Z,1.27
2022-09-01T00:11:23.154Z,1.40
2022-09-01T00:13:50.745Z,1.45
2022-09-01T00:16:18.252Z,1.50
2022-09-01T00:18:46.634Z,1.40
2022-09-01T00:21:14.715Z,1.40
2022-09-01T00:23:41.788Z,1.83
2022-09-01T00:26:08.914Z,1.42
2022-09-01T00:28:39.230Z,1.60
2022-09-01T00:31:07.698Z,1.40
2022-09-01T00:33:35.381Z,1.33
2022-09-01T00:36:02.575Z,1.60
2022-09-01T00:38:29.656Z,1.30
2022-09-01T00:40:56.751Z,1.55
2022-09-01T00:43:36.489Z,1.40
2022-09-01T00:46:04.360Z,1.40
2022-09-01T00:48:31.786Z,1.40
2022-09-01T00:50:59.484Z,1.30
2022-09-01T00:53:27.385Z,1.65
2022-09-01T00:55:54.575Z,1.60
2022-09-01T00:58:22.003Z,1.40
2022-09-01T01:00:50.207Z,1.70
2022-09-01T01:03:17.403Z,1.58
2022-09-01T01:05:48.765Z,1.48
2022-09-01T01:08:21.633Z,1.40
2022-09-01T01:10:48.832Z,1.52
2022-09-01T01:13:17.048Z,1.50
2022-09-01T01:15:44.999Z,1.45
2022-09-01T01:18:13.321Z,1.60
2022-09-01T01:20:59.679Z,1.47
2022-09-01T01:23:46.113Z,1.40
2022-09-01T01:26:13.170Z,1.50
2022-09-01T01:28:41.179Z,1.60
2022-09-01T01:31:15.954Z,1.50
2022-09-01T01:33:47.574Z,1.40
2022-09-01T01:36:15.961Z,1.48
2022-09-01T01:38:44.478Z,1.60
2022-09-01T01:41:11.947Z,1.52
2022-09-01T01:43:39.183Z,1.80
2022-09-01T01:46:08.289Z,1.53
2022-09-01T01:48:37.596Z,1.60
2022-09-01T01:51:04.719Z,1.65
2022-09-01T01:53:32.604Z,1.60
2022-09-01T01:56:00.818Z,1.80
2022-09-01T01:58:28.926Z,1.57
2022-09-01T02:00:56.657Z,1.60
2022-09-01T02:03:25.347Z,1.70
2022-09-01T02:05:53.802Z,1.45
2022-09-01T02:08:22.607Z,1.50
2022-09-01T02:10:50.877Z,1.70
2022-09-01T02:13:19.239Z,1.60
2022-09-01T02:15:53.598Z,1.67
2022-09-01T02:18:24.596Z,1.60
2022-09-01T02:20:52.913Z,1.70
2022-09-01T02:23:23.390Z,1.57
2022-09-01T02:26:14.577Z,1.73
2022-09-01T02:28:44.050Z,1.75
2022-09-01T02:31:12.232Z,1.50
2022-09-01T02:33:40.536Z,1.50
2022-09-01T02:36:09.693Z,1.63
2022-09-01T02:38:36.999Z,1.92
2022-09-01T02:41:06.843Z,1.75
2022-09-01T02:43:34.005Z,1.73
2022-09-01T02:46:02.188Z,1.90
2022-09-01T02:48:35.819Z,1.90
2022-09-01T02:51:16.299Z,1.90
2022-09-01T02:53:44.074Z,1.88
2022-09-01T02:56:14.299Z,1.83
2022-09-01T02:58:45.989Z,2.00
2022-09-01T03:01:15.258Z,1.57
2022-09-01T03:03:42.428Z,1.90
2022-09-01T03:06:10.142Z,1.75
2022-09-01T03:08:39.463Z,1.90
2022-09-01T03:11:13.164Z,1.80
2022-09-01T03:13:41.565Z,2.00
2022-09-01T03:16:09.609Z,1.80
2022-09-01T03:18:37.218Z,2.00
2022-09-01T03:21:05.710Z,2.00
2022-09-01T03:23:34.002Z,1.80
2022-09-01T03:26:01.492Z,2.07
2022-09-01T03:28:28.720Z,1.98
2022-09-01T03:30:56.707Z,1.90
2022-09-01T03:33:25.147Z,1.77
2022-09-01T03:35:52.511Z,1.73
2022-09-01T03:38:24.066Z,1.80
2022-09-01T03:40:52.972Z,1.90
2022-09-01T03:43:23.387Z,2.08
2022-09-01T03:45:50.632Z,1.73
2022-09-01T03:48:18.456Z,2.15
2022-09-01T03:50:46.246Z,1.87
2022-09-01T03:53:15.032Z,2.25
2022-09-01T03:55:42.120Z,1.95
2022-09-01T03:58:12.307Z,2.10
2022-09-01T04:00:41.105Z,2.05
2022-09-01T04:03:16.892Z,1.73
2022-09-01T04:05:46.007Z,1.83
2022-09-01T04:08:13.553Z,1.90
2022-09-01T04:10:49.365Z,2.10
2022-09-01T04:13:27.226Z,2.20
2022-09-01T04:15:56.167Z,2.23
2022-09-01T04:18:23.316Z,2.30
2022-09-01T04:20:51.803Z,2.22
2022-09-01T04:23:26.507Z,2.22
2022-09-01T04:25:56.310Z,2.28
2022-09-01T04:28:24.702Z,2.33
2022-09-01T04:30:55.791Z,2.25
2022-09-01T04:33:27.381Z,2.40
2022-09-01T04:35:56.530Z,2.20
2022-09-01T04:38:25.317Z,2.20
2022-09-01T04:40:53.447Z,2.30
2022-09-01T04:43:20.550Z,2.20
2022-09-01T04:45:49.628Z,2.30
2022-09-01T04:48:17.396Z,2.10
2022-09-01T04:50:44.910Z,2.28
2022-09-01T04:53:12.198Z,2.20
2022-09-01T04:55:43.456Z,2.30
2022-09-01T04:58:17.326Z,2.13
2022-09-01T05:00:48.051Z,2.20
2022-09-01T05:03:16.978Z,2.20
2022-09-01T05:05:45.468Z,2.20
2022-09-01T05:08:14.421Z,2.35
2022-09-01T05:10:52.414Z,2.20
2022-09-01T05:13:23.026Z,2.20
2022-09-01T05:16:01.799Z,2.13
2022-09-01T05:18:29.237Z,2.30
2022-09-01T05:20:57.436Z,2.28
2022-09-01T05:23:26.579Z,2.20
2022-09-01T05:25:54.814Z,2.10
2022-09-01T05:28:25.198Z,2.03
2022-09-01T05:30:54.182Z,2.00
2022-09-01T05:33:22.062Z,2.00
2022-09-01T05:35:57.151Z,2.30
2022-09-01T05:38:25.535Z,2.42
2022-09-01T05:40:59.282Z,2.50
2022-09-01T05:43:30.683Z,3.07
2022-09-01T05:46:06.536Z,2.30
2022-09-01T05:48:39.687Z,2.38
2022-09-01T05:51:22.429Z,2.20
2022-09-01T05:54:01.963Z,2.17
2022-09-01T05:56:30.817Z,2.13
2022-09-01T06:01:50.216Z,2.00
2022-09-01T06:04:17.845Z,1.77
2022-09-01T06:07:04.063Z,1.80
2022-09-01T06:09:33.477Z,1.80
2022-09-01T06:12:02.704Z,1.88
2022-09-01T06:14:29.773Z,1.90
2022-09-01T06:16:56.824Z,2.05
2022-09-01T06:19:23.890Z,1.90
2022-09-01T06:21:51.236Z,1.93
2022-09-01T06:24:18.338Z,1.85
2022-09-01T06:26:46.191Z,1.73
2022-09-01T06:29:15.337Z,1.80
2022-09-01T06:31:43.264Z,1.90
2022-09-01T06:34:17.565Z,2.03
2022-09-01T06:36:45.772Z,1.83
2022-09-01T06:39:22.321Z,1.98
2022-09-01T06:41:52.604Z,2.25
2022-09-01T06:44:23.224Z,2.10
2022-09-01T06:46:50.859Z,1.83
2022-09-01T06:49:18.013Z,2.00
2022-09-01T06:51:51.623Z,2.30
2022-09-01T06:54:21.055Z,1.90
2022-09-01T06:56:51.832Z,2.20
2022-09-01T06:59:35.757Z,2.40
2022-09-01T07:02:05.710Z,2.30
2022-09-01T07:04:51.230Z,2.22
2022-09-01T07:10:18.328Z,2.10
2022-09-01T07:18:27.003Z,2.30
2022-09-01T07:21:38.698Z,2.10
2022-09-01T07:24:07.592Z,2.20
2022-09-01T07:26:31.017Z,2.00
2022-09-01T07:29:01.830Z,1.90
2022-09-01T07:39:55.323Z,1.80
2022-09-01T07:45:27.682Z,1.80
2022-09-01T07:47:55.099Z,1.65
2022-09-01T07:50:39.750Z,1.70
2022-09-01T07:53:08.973Z,1.67
2022-09-01T07:55:36.353Z,1.88
2022-09-01T07:58:03.426Z,1.60
2022-09-01T08:00:31.802Z,1.70
2022-09-01T08:03:00.058Z,1.40
2022-09-01T08:05:28.785Z,1.63
2022-09-01T08:07:56.426Z,1.50
2022-09-01T08:10:23.545Z,1.42
2022-09-01T08:12:58.186Z,1.45
2022-09-01T08:16:06.800Z,1.50
2022-09-01T08:18:14.865Z,1.70
2022-09-01T08:20:47.317Z,1.70
2022-09-01T08:23:15.774Z,1.70
2022-09-01T08:25:45.290Z,1.60
2022-09-01T08:28:13.051Z,1.80
2022-09-01T08:30:41.105Z,1.23
2022-09-01T08:33:11.602Z,1.30
2022-09-01T08:35:39.884Z,1.55
2022-09-01T08:38:07.125Z,1.50
2022-09-01T08:40:34.593Z,1.50
2022-09-01T08:43:04.508Z,1.47
2022-09-01T08:45:53.567Z,1.48
2022-09-01T08:49:16.136Z,1.60
2022-09-01T08:51:17.124Z,1.35
2022-09-01T08:53:50.547Z,1.48
2022-09-01T08:56:19.594Z,1.20
2022-09-01T08:58:46.769Z,1.35
2022-09-01T09:01:20.201Z,1.40
2022-09-01T09:04:05.897Z,1.67
2022-09-01T09:06:53.416Z,1.50
2022-09-01T09:09:32.294Z,1.50
2022-09-01T09:12:04.362Z,1.40
2022-09-01T09:14:42.940Z,1.50
2022-09-01T09:17:10.575Z,1.35
2022-09-01T09:19:39.641Z,1.60
2022-09-01T09:22:11.294Z,1.60
2022-09-01T09:24:47.584Z,1.33
2022-09-01T09:27:18.445Z,1.48
2022-09-01T09:29:46.796Z,1.40
2022-09-01T09:32:51.700Z,1.40
2022-09-01T09:35:17.377Z,1.50
2022-09-01T09:37:44.579Z,1.42
2022-09-01T09:40:17.410Z,1.38
2022-09-01T09:42:59.299Z,1.50
2022-09-01T09:45:28.350Z,1.45
2022-09-01T09:47:56.206Z,1.40
2022-09-01T09:50:34.119Z,1.67
2022-09-01T09:53:33.993Z,1.75
2022-09-01T09:56:09.238Z,1.67
2022-09-01T09:58:37.881Z,1.60
2022-09-01T10:01:24.262Z,1.47
2022-09-01T10:03:53.710Z,1.30
2022-09-01T10:06:41.012Z,1.50
2022-09-01T10:09:33.824Z,1.30
2022-09-01T10:12:02.051Z,1.60
2022-09-01T10:14:51.773Z,1.40
2022-09-01T10:17:35.909Z,1.30
2022-09-01T10:20:07.256Z,1.38
2022-09-01T10:22:35.582Z,1.30
2022-09-01T10:25:03.349Z,1.40
2022-09-01T10:27:32.934Z,1.50
2022-09-01T10:32:55.596Z,1.40
2022-09-01T10:35:29.765Z,1.38
2022-09-01T10:37:59.142Z,1.48
2022-09-01T10:40:31.569Z,1.23
2022-09-01T10:43:00.968Z,1.40
2022-09-01T10:45:32.575Z,1.40
2022-09-01T10:48:30.278Z,1.45
2022-09-01T10:51:18.519Z,1.52
2022-09-01T10:54:01.832Z,1.50
2022-09-01T10:56:51.875Z,1.63
2022-09-01T10:59:31.571Z,1.60
2022-09-01T11:04:52.799Z,1.60
2022-09-01T11:07:29.690Z,1.40
2022-09-01T11:10:30.781Z,1.60
2022-09-01T11:13:08.353Z,1.52
2022-09-01T11:15:39.884Z,1.50
2022-09-01T11:18:11.845Z,1.85
2022-09-01T11:20:40.003Z,1.60
2022-09-01T11:23:22.838Z,1.35
2022-09-01T11:26:19.046Z,1.48
2022-09-01T11:28:41.825Z,1.70
2022-09-01T11:31:09.077Z,1.70
2022-09-01T11:33:39.555Z,1.40
2022-09-01T11:36:13.150Z,1.33
2022-09-01T11:38:54.910Z,1.60
2022-09-01T11:41:30.288Z,1.50
2022-09-01T11:43:58.219Z,1.40
2022-09-01T11:46:27.851Z,1.50
2022-09-01T11:48:55.108Z,1.50
2022-09-01T11:51:22.274Z,1.60
2022-09-01T11:53:50.506Z,1.30
2022-09-01T11:56:20.273Z,1.50
2022-09-01T11:58:47.950Z,1.40
2022-09-01T12:01:17.610Z,1.80
2022-09-01T12:03:45.670Z,1.35
2022-09-01T12:06:14.399Z,1.40
2022-09-01T12:08:43.228Z,1.30
2022-09-01T12:11:12.282Z,1.23
2022-09-01T12:13:40.672Z,1.48
2022-09-01T12:16:24.440Z,1.30
2022-09-01T12:18:53.118Z,1.27
2022-09-01T12:21:22.918Z,1.50
2022-09-01T12:23:50.031Z,1.50
2022-09-01T12:26:19.657Z,1.70
2022-09-01T12:28:49.571Z,1.50
2022-09-01T12:31:23.125Z,1.50
2022-09-01T12:33:51.217Z,1.50
2022-09-01T12:36:27.334Z,1.43
2022-09-01T12:38:55.408Z,1.50
2022-09-01T12:41:39.908Z,1.30
2022-09-01T12:44:25.756Z,1.58
2022-09-01T12:46:53.091Z,1.55
2022-09-01T12:49:50.207Z,1.60
2022-09-01T12:52:25.735Z,1.63
2022-09-01T12:54:55.895Z,1.52
2022-09-01T12:57:34.250Z,1.50
2022-09-01T13:00:19.663Z,1.58
2022-09-01T13:02:53.246Z,1.60
2022-09-01T13:05:40.997Z,1.55
2022-09-01T13:08:10.254Z,1.50
2022-09-01T13:10:43.240Z,1.60
2022-09-01T13:13:11.071Z,1.30
2022-09-01T13:15:42.778Z,1.40
2022-09-01T13:18:10.695Z,1.50
2022-09-01T13:20:38.622Z,1.50
2022-09-01T13:23:05.681Z,1.50
2022-09-01T13:25:33.192Z,1.70
2022-09-01T13:28:02.121Z,1.43
2022-09-01T13:30:29.999Z,1.65
2022-09-01T13:35:44.833Z,1.70
2022-09-01T13:38:15.970Z,1.50
2022-09-01T13:40:43.686Z,1.90
2022-09-01T13:43:11.711Z,1.60
2022-09-01T13:45:40.663Z,1.67
2022-09-01T13:48:15.830Z,1.65
2022-09-01T13:53:31.611Z,1.87
2022-09-01T13:55:58.704Z,1.60
2022-09-01T13:58:25.812Z,1.80
2022-09-01T14:00:53.005Z,1.90
2022-09-01T14:03:21.603Z,1.70
2022-09-01T14:05:49.687Z,1.70
2022-09-01T14:08:19.022Z,1.67
2022-09-01T14:10:48.851Z,1.50
2022-09-01T14:13:16.360Z,1.40
2022-09-01T14:15:44.571Z,1.58
2022-09-01T14:18:13.960Z,1.30
2022-09-01T14:20:43.015Z,1.50
2022-09-01T14:23:10.819Z,1.70
2022-09-01T14:25:42.156Z,1.60
2022-09-01T14:28:09.243Z,1.80
2022-09-01T14:30:37.346Z,1.60
2022-09-01T14:33:04.838Z,1.77
2022-09-01T14:35:34.965Z,1.80
2022-09-01T14:38:05.102Z,1.60
2022-09-01T14:40:32.299Z,1.70
2022-09-01T14:42:59.518Z,1.70
2022-09-01T14:45:31.363Z,1.50
2022-09-01T14:48:00.994Z,1.70
2022-09-01T14:50:32.279Z,1.92
2022-09-01T14:53:00.540Z,1.52
2022-09-01T14:55:29.907Z,1.80
2022-09-01T14:57:57.537Z,1.98
2022-09-01T15:00:25.230Z,1.85
2022-09-01T15:02:53.288Z,1.83
2022-09-01T15:05:20.910Z,1.75
2022-09-01T15:07:48.062Z,1.50
2022-09-01T15:10:24.883Z,1.70
2022-09-01T15:12:52.957Z,1.77
2022-09-01T15:15:20.373Z,1.50
2022-09-01T15:17:47.517Z,1.90
2022-09-01T15:20:33.296Z,1.60
2022-09-01T15:23:01.474Z,1.70
2022-09-01T15:25:28.866Z,1.85
2022-09-01T15:27:55.931Z,1.40
2022-09-01T15:30:23.200Z,1.75
2022-09-01T15:32:51.690Z,1.60
2022-09-01T15:35:19.583Z,1.50
2022-09-01T15:37:47.912Z,1.50
2022-09-01T15:40:15.029Z,1.80
2022-09-01T15:42:42.208Z,1.77
2022-09-01T15:45:14.828Z,1.40
2022-09-01T15:47:45.666Z,1.80
2022-09-01T15:50:16.879Z,1.60
2022-09-01T15:52:49.758Z,1.40
2022-09-01T15:55:18.303Z,2.00
2022-09-01T15:57:45.419Z,1.60
2022-09-01T16:00:13.825Z,1.50
2022-09-01T16:02:40.932Z,1.63
2022-09-01T16:05:08.413Z,1.65
2022-09-01T16:07:35.506Z,1.40
2022-09-01T16:10:02.601Z,1.80
2022-09-01T16:12:30.993Z,1.40
2022-09-01T16:14:58.101Z,1.40
2022-09-01T16:17:45.518Z,1.60
2022-09-01T16:20:23.625Z,1.80
2022-09-01T16:22:58.503Z,1.50
2022-09-01T16:25:34.772Z,1.40
2022-09-01T16:28:03.083Z,1.80
2022-09-01T16:30:30.407Z,1.77
2022-09-01T16:32:58.954Z,1.98
2022-09-01T16:35:31.130Z,1.40
2022-09-01T16:38:14.659Z,1.75
2022-09-01T16:40:51.509Z,1.63
2022-09-01T16:43:38.834Z,1.60
2022-09-01T16:46:11.893Z,1.65
2022-09-01T16:48:57.843Z,1.63
2022-09-01T16:51:27.913Z,1.77
2022-09-01T16:54:01.023Z,1.85
2022-09-01T16:56:32.488Z,1.67
2022-09-01T16:59:08.798Z,1.80
2022-09-01T17:01:41.700Z,1.60
2022-09-01T17:04:08.814Z,1.67
2022-09-01T17:06:58.946Z,1.60
2022-09-01T17:09:36.463Z,1.55
2022-09-01T17:12:29.840Z,1.58
2022-09-01T17:14:59.781Z,1.43
2022-09-01T17:17:44.498Z,1.70
2022-09-01T17:20:12.926Z,1.83
2022-09-01T17:22:43.326Z,1.60
2022-09-01T17:25:13.790Z,1.65
2022-09-01T17:27:54.190Z,2.07
2022-09-01T17:30:22.046Z,1.70
2022-09-01T17:33:12.135Z,2.13
2022-09-01T17:36:03.314Z,1.95
2022-09-01T17:38:30.348Z,2.22
2022-09-01T17:41:16.260Z,1.90
2022-09-01T17:43:56.058Z,1.80
2022-09-01T17:46:44.858Z,1.77
2022-09-01T17:49:29.147Z,1.70
2022-09-01T17:51:56.329Z,1.95
2022-09-01T17:54:41.934Z,1.90
2022-09-01T17:57:27.709Z,1.73
2022-09-01T18:00:17.527Z,2.05
2022-09-01T18:02:49.614Z,1.80
2022-09-01T18:05:19.945Z,1.58
2022-09-01T18:08:11.357Z,1.70
2022-09-01T18:10:40.826Z,1.80
2022-09-01T18:13:18.573Z,1.63
2022-09-01T18:15:58.551Z,1.70
2022-09-01T18:18:33.158Z,1.50
2022-09-01T18:21:05.123Z,1.60
2022-09-01T18:23:35.967Z,1.80
2022-09-01T18:26:10.819Z,1.65
2022-09-01T18:28:37.908Z,1.60
2022-09-01T18:31:10.911Z,1.73
2022-09-01T18:33:58.990Z,1.40
2022-09-01T18:36:31.455Z,2.10
2022-09-01T18:38:58.520Z,1.92
2022-09-01T18:41:28.621Z,1.85
2022-09-01T18:44:14.584Z,2.10
2022-09-01T18:46:44.783Z,1.90
2022-09-01T18:49:24.752Z,2.00
2022-09-01T18:52:16.293Z,1.88
2022-09-01T18:54:58.412Z,1.67
2022-09-01T18:57:29.570Z,2.00
2022-09-01T19:00:17.006Z,1.67
2022-09-01T19:02:53.190Z,1.75
2022-09-01T19:05:30.155Z,1.88
2022-09-01T19:08:06.023Z,1.60
2022-09-01T19:10:43.450Z,1.75
2022-09-01T19:13:16.897Z,1.70
2022-09-01T19:16:03.093Z,1.73
2022-09-01T19:18:47.531Z,2.00
2022-09-01T19:21:25.070Z,1.73
2022-09-01T19:23:59.789Z,1.70
2022-09-01T19:26:27.935Z,1.90
2022-09-01T19:28:59.811Z,1.90
2022-09-01T19:31:31.992Z,1.92
2022-09-01T19:34:01.224Z,2.30
2022-09-01T19:36:31.090Z,1.80
2022-09-01T19:38:58.427Z,2.00
2022-09-01T19:41:28.887Z,1.70
2022-09-01T19:44:01.073Z,2.03
2022-09-01T19:46:32.244Z,1.60
2022-09-01T19:49:07.005Z,1.80
2022-09-01T19:51:40.483Z,1.70
2022-09-01T19:54:16.176Z,1.80
2022-09-01T19:56:49.766Z,1.70
2022-09-01T19:59:25.128Z,1.63
2022-09-01T20:01:59.238Z,1.70
2022-09-01T20:04:44.920Z,1.83
2022-09-01T20:07:21.011Z,1.60
2022-09-01T20:09:54.017Z,1.80
2022-09-01T20:12:37.567Z,1.80
2022-09-01T20:15:24.979Z,1.50
2022-09-01T20:17:55.468Z,1.67
2022-09-01T20:20:23.885Z,1.70
2022-09-01T20:22:51.158Z,1.58
2022-09-01T20:25:25.728Z,1.50
2022-09-01T20:28:02.168Z,1.55
2022-09-01T20:30:39.890Z,1.30
2022-09-01T20:33:12.969Z,1.60
2022-09-01T20:35:42.694Z,1.77
2022-09-01T20:38:42.286Z,1.30
2022-09-01T20:41:14.650Z,1.70
2022-09-01T20:43:44.287Z,1.60
2022-09-01T20:46:11.757Z,1.27
2022-09-01T20:48:40.217Z,1.50
2022-09-01T20:51:11.991Z,1.48
2022-09-01T20:53:59.910Z,1.83
2022-09-01T20:56:35.195Z,1.30
2022-09-01T20:59:17.291Z,1.40
2022-09-01T21:01:59.861Z,1.50
2022-09-01T21:04:45.875Z,1.58
2022-09-01T21:07:17.374Z,1.38
2022-09-01T21:09:47.432Z,1.50
2022-09-01T21:12:17.338Z,1.40
2022-09-01T21:14:53.368Z,1.55
2022-09-01T21:17:39.256Z,1.52
2022-09-01T21:20:19.350Z,1.60
2022-09-01T21:22:46.405Z,1.30
2022-09-01T21:25:13.549Z,1.30
2022-09-01T21:27:51.161Z,1.50
2022-09-01T21:30:18.829Z,1.52
2022-09-01T21:32:46.195Z,1.80
2022-09-01T21:35:14.918Z,1.60
2022-09-01T21:37:42.029Z,1.50
2022-09-01T21:40:11.000Z,1.73
2022-09-01T21:42:43.187Z,1.48
2022-09-01T21:45:12.000Z,1.50
2022-09-01T21:47:39.367Z,1.60
2022-09-01T21:50:06.691Z,1.30
2022-09-01T21:52:33.758Z,1.48
2022-09-01T21:55:00.858Z,1.40
2022-09-01T21:57:28.541Z,1.63
2022-09-01T21:59:55.626Z,1.30
2022-09-01T22:02:22.933Z,1.33
2022-09-01T22:04:56.131Z,1.52
2022-09-01T22:07:23.210Z,1.40
2022-09-01T22:09:50.282Z,1.45
2022-09-01T22:12:17.405Z,1.43
2022-09-01T22:14:44.458Z,1.40
2022-09-01T22:17:11.588Z,1.33
2022-09-01T22:19:38.690Z,1.20
2022-09-01T22:22:05.770Z,1.67
2022-09-01T22:24:32.867Z,1.20
2022-09-01T22:26:59.993Z,1.50
2022-09-01T22:29:27.172Z,1.50
2022-09-01T22:31:54.319Z,1.45
2022-09-01T22:34:21.372Z,1.67
2022-09-01T22:36:49.511Z,1.40
2022-09-01T22:39:21.872Z,1.40
2022-09-01T22:41:52.463Z,1.60
2022-09-01T22:44:19.549Z,1.30
2022-09-01T22:46:46.614Z,1.20
2022-09-01T22:49:13.806Z,1.17
2022-09-01T22:51:42.389Z,1.20
2022-09-01T22:54:10.367Z,1.35
2022-09-01T22:56:39.400Z,1.42
2022-09-01T22:59:08.181Z,1.50
2022-09-01T23:01:36.742Z,1.40
2022-09-01T23:04:04.940Z,1.20
2022-09-01T23:06:32.916Z,1.20
2022-09-01T23:09:00.927Z,1.30
2022-09-01T23:11:28.211Z,1.30
2022-09-01T23:13:55.758Z,1.27
2022-09-01T23:16:24.110Z,1.20
2022-09-01T23:18:51.700Z,1.27
2022-09-01T23:21:20.777Z,1.30
2022-09-01T23:23:47.843Z,1.30
2022-09-01T23:26:14.997Z,1.10
2022-09-01T23:28:43.182Z,1.15
2022-09-01T23:31:11.223Z,1.30
2022-09-01T23:33:38.318Z,1.33
2022-09-01T23:36:07.324Z,1.23
2022-09-01T23:38:34.741Z,1.37
2022-09-01T23:41:05.350Z,1.20
2022-09-01T23:43:32.412Z,1.15
2022-09-01T23:45:59.552Z,1.20
2022-09-01T23:48:26.757Z,1.23
2022-09-01T23:50:55.367Z,1.10
2022-09-01T23:53:24.251Z,1.60
2022-09-01T23:55:53.629Z,1.20
2022-09-01T23:58:21.701Z,1.40
